Time;durP1;ratioP1;P1;durP2;ratioP2;P2;SDS_P1;SDS_P2;PMS_P1;PMS_P2;Temp;Humidity;BMP_temperature;BMP_pressure;BME280_temperature;BME280_humidity;BME280_pressure;Samples;Min_cycle;Max_cycle;Signal;HPM_P1;HPM_P2
2022/11/04 00:01:17;;;;;;;9.10;4.38;;;10.80;92.20;;;;;;4922364;29;20146;-73
2022/11/04 00:03:42;;;;;;;9.23;4.07;;;10.80;92.30;;;;;;4921508;29;20146;-72
2022/11/04 00:06:08;;;;;;;7.50;3.95;;;10.70;92.30;;;;;;4907630;29;20613;-73
2022/11/04 00:08:35;;;;;;;10.82;4.13;;;10.70;92.40;;;;;;4922786;29;20032;-72
2022/11/04 00:13:46;;;;;;;6.95;3.70;;;10.70;92.30;;;;;;4925208;29;20071;-72
2022/11/04 00:18:58;;;;;;;5.75;3.63;;;10.70;92.30;;;;;;4922380;29;20032;-71
2022/11/04 00:29:39;;;;;;;8.73;4.22;;;10.70;92.60;;;;;;4929817;29;20535;-72
2022/11/04 00:34:49;;;;;;;11.32;4.60;;;10.60;92.80;;;;;;4924170;29;20039;-72
2022/11/04 00:37:15;;;;;;;12.38;5.90;;;10.60;93.00;;;;;;4921324;29;20035;-72
2022/11/04 00:39:41;;;;;;;7.82;4.28;;;10.60;93.10;;;;;;4924135;29;20164;-72
2022/11/04 00:42:07;;;;;;;7.38;4.68;;;10.50;93.20;;;;;;4921901;29;20016;-72
2022/11/04 00:44:32;;;;;;;11.10;4.40;;;10.50;93.40;;;;;;4924622;29;20587;-72
2022/11/04 00:46:58;;;;;;;10.88;4.82;;;10.50;93.40;;;;;;4924013;29;20039;-71
2022/11/04 00:49:24;;;;;;;9.07;4.38;;;10.50;93.40;;;;;;4925155;29;20174;-71
2022/11/04 00:51:50;;;;;;;9.77;5.15;;;10.50;93.60;;;;;;4922378;29;20047;-72
2022/11/04 00:54:15;;;;;;;10.30;5.07;;;10.50;93.60;;;;;;4922363;29;20027;-72
2022/11/04 00:56:41;;;;;;;9.27;4.70;;;10.50;93.60;;;;;;4919668;29;20039;-72
2022/11/04 00:59:07;;;;;;;7.93;4.57;;;10.50;93.60;;;;;;4926040;29;20027;-71
2022/11/04 01:01:33;;;;;;;9.90;4.35;;;10.50;93.50;;;;;;4923896;29;20118;-72
2022/11/04 01:03:58;;;;;;;8.30;5.00;;;10.60;93.50;;;;;;4920988;29;20035;-71
2022/11/04 01:06:25;;;;;;;10.43;5.00;;;10.60;93.40;;;;;;4923886;29;20126;-72
2022/11/04 01:08:59;;;;;;;10.60;4.90;;;10.60;93.70;;;;;;4925020;29;20035;-71
2022/11/04 01:11:27;;;;;;;8.57;4.38;;;10.60;93.30;;;;;;4921301;29;20040;-70
2022/11/04 01:13:53;;;;;;;8.80;4.72;;;10.70;93.20;;;;;;4919295;29;20078;-70
2022/11/04 01:16:19;;;;;;;8.57;5.03;;;10.70;93.20;;;;;;4921867;29;20742;-70
2022/11/04 01:18:45;;;;;;;7.82;4.50;;;10.60;93.20;;;;;;4920078;29;20431;-70
2022/11/04 01:21:13;;;;;;;9.18;5.38;;;10.60;93.30;;;;;;4922786;29;20031;-70
2022/11/04 01:23:39;;;;;;;7.15;4.90;;;10.60;93.70;;;;;;4922622;29;20042;-70
2022/11/04 01:26:07;;;;;;;9.63;5.15;;;10.70;93.60;;;;;;4921785;29;20031;-69
2022/11/04 01:28:33;;;;;;;9.55;5.18;;;10.70;93.50;;;;;;4921645;29;20142;-70
2022/11/04 01:31:08;;;;;;;12.80;5.22;;;10.60;93.50;;;;;;4923524;29;20386;-70
2022/11/04 01:33:34;;;;;;;10.43;5.75;;;10.70;93.40;;;;;;4919255;29;20197;-70
2022/11/04 01:36:00;;;;;;;9.10;5.65;;;10.70;93.40;;;;;;4921356;29;20073;-70
2022/11/04 01:38:26;;;;;;;8.10;5.00;;;10.70;93.50;;;;;;4920718;29;20467;-71
2022/11/04 01:40:51;;;;;;;11.50;5.45;;;10.70;93.50;;;;;;4920505;29;20119;-71
2022/11/04 01:43:19;;;;;;;11.63;5.22;;;10.70;93.70;;;;;;4925238;29;20865;-72
2022/11/04 01:45:56;;;;;;;11.07;6.75;;;10.70;93.70;;;;;;4919750;29;20523;-71
2022/11/04 01:48:30;;;;;;;11.63;6.78;;;10.70;93.90;;;;;;4925213;29;20444;-73
2022/11/04 01:50:56;;;;;;;12.50;6.55;;;10.70;94.20;;;;;;4918582;29;20511;-70
2022/11/04 01:53:32;;;;;;;11.57;6.13;;;10.60;94.40;;;;;;4921600;29;20504;-70
2022/11/04 01:56:03;;;;;;;11.02;5.88;;;10.70;94.40;;;;;;4923162;29;20031;-70
2022/11/04 01:58:32;;;;;;;11.25;6.60;;;10.70;94.30;;;;;;4919542;29;20159;-70
2022/11/04 02:00:58;;;;;;;10.02;5.70;;;10.80;94.40;;;;;;4922159;28;20099;-70
2022/11/04 02:03:47;;;;;;;12.63;6.70;;;10.80;94.40;;;;;;4924877;29;20031;-70
2022/11/04 02:06:14;;;;;;;10.48;6.20;;;10.90;94.40;;;;;;4916429;29;20075;-70
2022/11/04 02:08:41;;;;;;;9.95;5.72;;;10.90;94.30;;;;;;4920559;29;20568;-70
2022/11/04 02:11:06;;;;;;;11.73;6.30;;;10.90;94.30;;;;;;4916409;29;20028;-71
2022/11/04 02:13:35;;;;;;;10.30;6.20;;;10.90;94.20;;;;;;4922417;29;20036;-71
2022/11/04 02:16:21;;;;;;;10.50;5.68;;;11.00;94.20;;;;;;4917666;29;20587;-70
2022/11/04 02:18:56;;;;;;;10.80;6.75;;;11.00;94.30;;;;;;4919642;29;20034;-71
2022/11/04 02:21:54;;;;;;;9.90;6.07;;;11.00;94.20;;;;;;4923487;29;20043;-71
2022/11/04 02:24:47;;;;;;;11.45;6.07;;;11.00;94.30;;;;;;4914000;29;20044;-71
2022/11/04 02:27:23;;;;;;;8.45;5.78;;;11.10;94.30;;;;;;4920133;29;20032;-69
2022/11/04 02:30:10;;;;;;;11.82;5.80;;;11.00;94.20;;;;;;4919088;29;20518;-69
2022/11/04 02:32:54;;;;;;;10.85;5.82;;;11.00;94.10;;;;;;4917009;29;20782;-70
2022/11/04 02:35:59;;;;;;;10.13;6.38;;;11.00;94.00;;;;;;4920413;29;20829;-70
2022/11/04 02:38:36;;;;;;;9.10;5.93;;;11.00;94.10;;;;;;4908556;29;20044;-71
2022/11/04 02:41:18;;;;;;;16.58;6.55;;;11.10;94.10;;;;;;4920851;29;20503;-70
2022/11/04 02:44:05;;;;;;;9.43;5.72;;;11.10;94.10;;;;;;4922922;29;20112;-73
2022/11/04 02:46:36;;;;;;;7.80;5.63;;;11.10;94.00;;;;;;4918422;29;20035;-72
2022/11/04 02:49:19;;;;;;;10.23;5.70;;;11.10;93.90;;;;;;4922733;29;20039;-72
2022/11/04 02:51:53;;;;;;;7.55;5.50;;;11.10;93.90;;;;;;4921191;29;20071;-72
2022/11/04 02:54:48;;;;;;;10.27;6.07;;;11.10;93.80;;;;;;4922001;29;20040;-71
2022/11/04 02:57:19;;;;;;;13.77;6.43;;;11.10;93.90;;;;;;4920793;29;20043;-71
2022/11/04 02:59:51;;;;;;;12.07;6.28;;;11.10;93.80;;;;;;4920921;29;20104;-71
2022/11/04 03:02:32;;;;;;;14.23;6.00;;;11.20;93.90;;;;;;4920362;29;20114;-71
2022/11/04 03:05:16;;;;;;;10.23;5.60;;;11.20;93.90;;;;;;4921453;29;20058;-72
2022/11/04 03:07:45;;;;;;;7.78;5.82;;;11.20;93.90;;;;;;4920886;29;20039;-72
2022/11/04 03:10:17;;;;;;;11.23;6.80;;;11.30;93.60;;;;;;4919058;29;20036;-72
2022/11/04 03:12:53;;;;;;;11.05;6.32;;;11.20;93.50;;;;;;4921988;29;20041;-72
2022/11/04 03:15:25;;;;;;;11.43;6.68;;;11.10;93.60;;;;;;4924236;29;20035;-72
2022/11/04 03:18:10;;;;;;;9.52;6.03;;;11.10;93.90;;;;;;4922520;29;20043;-72
2022/11/04 03:20:39;;;;;;;9.27;5.97;;;11.10;94.00;;;;;;4924255;29;20028;-72
2022/11/04 03:23:05;;;;;;;9.23;6.18;;;11.10;94.10;;;;;;4921811;29;20064;-72
2022/11/04 03:25:42;;;;;;;11.88;6.35;;;11.10;94.10;;;;;;4923049;29;20480;-71
2022/11/04 03:28:26;;;;;;;11.10;6.93;;;11.20;94.20;;;;;;4923672;29;20039;-71
2022/11/04 03:30:56;;;;;;;12.82;6.18;;;11.20;94.30;;;;;;4922010;29;20036;-72
2022/11/04 03:33:40;;;;;;;9.50;6.22;;;11.20;94.40;;;;;;4927134;29;20552;-71
2022/11/04 03:36:07;;;;;;;12.75;7.00;;;11.20;94.40;;;;;;4924912;29;20028;-71
2022/11/04 03:38:34;;;;;;;15.32;7.60;;;11.30;94.30;;;;;;4927044;29;20399;-71
2022/11/04 03:41:06;;;;;;;14.05;7.38;;;11.30;94.40;;;;;;4925374;29;20417;-71
2022/11/04 03:43:34;;;;;;;12.60;6.75;;;11.30;94.40;;;;;;4924514;29;20035;-71
2022/11/04 03:46:00;;;;;;;10.40;6.72;;;11.30;94.40;;;;;;4924027;29;20031;-72
2022/11/04 03:48:25;;;;;;;11.93;6.10;;;11.40;94.40;;;;;;4929343;29;20042;-71
2022/11/04 03:50:51;;;;;;;11.77;6.30;;;11.40;94.30;;;;;;4921179;29;20039;-71
2022/11/04 03:53:21;;;;;;;13.20;7.15;;;11.40;94.30;;;;;;4925511;29;20027;-71
2022/11/04 03:56:06;;;;;;;11.60;6.43;;;11.40;94.30;;;;;;4924372;29;20791;-72
2022/11/04 03:59:11;;;;;;;9.48;5.90;;;11.40;94.30;;;;;;4923580;29;20502;-71
2022/11/04 04:01:54;;;;;;;11.48;6.28;;;11.40;94.20;;;;;;4921741;29;20043;-70
2022/11/04 04:04:29;;;;;;;13.68;7.55;;;11.40;94.30;;;;;;4919565;29;20130;-70
2022/11/04 04:07:30;;;;;;;11.13;6.68;;;11.40;94.30;;;;;;4921071;29;20111;-70
2022/11/04 04:13:04;;;;;;;12.15;6.88;;;11.40;94.50;;;;;;4923785;29;20039;-70
2022/11/04 04:15:44;;;;;;;11.77;6.93;;;11.40;94.50;;;;;;4925609;29;20044;-70
2022/11/04 04:18:15;;;;;;;10.98;5.97;;;11.40;94.50;;;;;;4926267;29;20456;-70
2022/11/04 04:20:45;;;;;;;11.07;6.30;;;11.50;94.50;;;;;;4927877;29;20492;-70
2022/11/04 04:28:53;;;;;;;12.98;7.53;;;11.50;94.50;;;;;;4922424;29;20894;-70
2022/11/04 04:34:05;;;;;;;11.15;6.68;;;11.50;94.50;;;;;;4923982;29;20036;-70
2022/11/04 04:36:38;;;;;;;11.65;6.88;;;11.60;94.60;;;;;;4923828;29;20066;-70
2022/11/04 04:44:58;;;;;;;12.30;7.50;;;11.60;94.40;;;;;;4922296;29;20036;-70
2022/11/04 04:47:27;;;;;;;13.27;6.72;;;11.60;94.40;;;;;;4921452;29;20899;-70
2022/11/04 04:49:56;;;;;;;11.48;6.65;;;11.60;94.50;;;;;;4920395;29;20134;-70
2022/11/04 04:52:24;;;;;;;15.70;6.75;;;11.60;94.40;;;;;;4924580;29;20436;-70
2022/11/04 04:54:50;;;;;;;11.23;7.22;;;11.60;94.40;;;;;;4923928;29;20043;-70
2022/11/04 04:57:16;;;;;;;14.00;7.45;;;11.60;94.40;;;;;;4921864;29;20036;-70
2022/11/04 04:59:41;;;;;;;8.80;6.10;;;11.60;94.40;;;;;;4920318;29;20027;-70
2022/11/04 05:02:07;;;;;;;12.77;7.47;;;11.60;94.40;;;;;;4921350;29;20744;-70
2022/11/04 05:04:33;;;;;;;12.30;7.65;;;11.70;94.40;;;;;;4921204;29;20058;-71
2022/11/04 05:06:59;;;;;;;10.90;7.47;;;11.60;94.40;;;;;;4921972;29;20102;-72
2022/11/04 05:09:24;;;;;;;11.93;7.82;;;11.60;94.50;;;;;;4920260;29;20043;-72
2022/11/04 05:11:50;;;;;;;13.93;7.55;;;11.60;94.70;;;;;;4923044;29;20564;-72
2022/11/04 05:14:16;;;;;;;12.65;7.65;;;11.60;94.50;;;;;;4922475;29;20518;-72
2022/11/04 05:16:42;;;;;;;9.70;6.80;;;11.60;94.40;;;;;;4922875;29;20791;-72
2022/11/04 05:19:07;;;;;;;12.65;7.05;;;11.60;94.40;;;;;;4918518;29;20123;-72
2022/11/04 05:21:33;;;;;;;11.43;7.18;;;11.60;94.50;;;;;;4919457;29;20048;-72
2022/11/04 05:23:59;;;;;;;16.60;7.95;;;11.70;94.50;;;;;;4916539;29;20043;-72
2022/11/04 05:26:25;;;;;;;15.00;8.18;;;11.70;94.60;;;;;;4921199;29;20203;-72
2022/11/04 05:28:51;;;;;;;14.60;7.30;;;11.70;94.50;;;;;;4923424;29;20485;-72
2022/11/04 05:31:17;;;;;;;14.43;7.55;;;11.70;94.60;;;;;;4918920;29;20036;-71
2022/11/04 05:33:43;;;;;;;14.27;8.82;;;11.70;94.80;;;;;;4924360;29;20367;-72
2022/11/04 05:36:14;;;;;;;13.98;8.32;;;11.70;95.00;;;;;;4920882;29;20118;-72
2022/11/04 05:38:41;;;;;;;12.68;8.32;;;11.70;95.10;;;;;;4919795;29;20492;-72
2022/11/04 05:41:09;;;;;;;11.23;7.80;;;11.70;95.20;;;;;;4915569;29;20519;-72
2022/11/04 05:43:35;;;;;;;14.65;8.40;;;11.70;95.30;;;;;;4922094;29;20035;-71
2022/11/04 05:46:01;;;;;;;14.50;9.18;;;11.70;95.50;;;;;;4922993;29;20058;-71
2022/11/04 05:48:27;;;;;;;13.63;9.18;;;11.70;95.70;;;;;;4922921;29;20291;-72
2022/11/04 05:50:54;;;;;;;18.05;9.77;;;11.70;95.90;;;;;;4920035;29;20107;-71
2022/11/04 05:53:19;;;;;;;16.65;9.05;;;11.70;96.40;;;;;;4922836;29;20039;-72
2022/11/04 05:55:45;;;;;;;15.98;9.52;;;11.70;96.70;;;;;;4921462;29;20035;-71
2022/11/04 05:58:11;;;;;;;16.08;8.95;;;11.70;96.80;;;;;;4918987;29;20030;-71
2022/11/04 06:00:37;;;;;;;14.90;8.55;;;11.70;97.10;;;;;;4921512;29;20130;-70
2022/11/04 06:03:02;;;;;;;13.57;9.43;;;11.70;97.30;;;;;;4925475;29;20070;-70
2022/11/04 06:05:28;;;;;;;15.40;10.00;;;11.70;97.50;;;;;;4921771;29;20031;-70
2022/11/04 06:07:55;;;;;;;14.07;9.25;;;11.70;97.80;;;;;;4922060;29;20416;-70
2022/11/04 06:10:21;;;;;;;17.58;9.88;;;11.70;97.80;;;;;;4920213;29;20032;-70
2022/11/04 06:12:47;;;;;;;21.42;10.02;;;11.80;97.80;;;;;;4921699;29;20032;-70
2022/11/04 06:15:13;;;;;;;16.45;10.10;;;11.80;97.70;;;;;;4921185;29;20122;-70
2022/11/04 06:17:39;;;;;;;15.00;9.75;;;11.90;97.80;;;;;;4923980;29;20118;-70
2022/11/04 06:20:05;;;;;;;14.02;8.70;;;11.90;97.70;;;;;;4926631;29;20583;-70
2022/11/04 06:22:31;;;;;;;15.35;9.43;;;11.90;97.70;;;;;;4917979;29;20095;-70
2022/11/04 06:24:57;;;;;;;13.45;9.02;;;11.90;97.80;;;;;;4921191;29;20039;-70
2022/11/04 06:27:23;;;;;;;15.02;9.27;;;11.90;97.80;;;;;;4917007;29;20032;-70
2022/11/04 06:29:49;;;;;;;14.80;8.52;;;11.90;98.00;;;;;;4921470;29;20070;-70
2022/11/04 06:32:17;;;;;;;13.60;8.60;;;11.90;98.10;;;;;;4917166;29;20032;-70
2022/11/04 06:34:43;;;;;;;14.05;8.93;;;12.00;98.20;;;;;;4919220;29;20056;-70
2022/11/04 06:37:09;;;;;;;12.63;7.55;;;12.00;98.20;;;;;;4921247;29;20055;-70
2022/11/04 06:39:35;;;;;;;14.63;8.13;;;12.00;98.20;;;;;;4921756;29;20722;-70
2022/11/04 06:42:01;;;;;;;12.80;7.93;;;12.10;98.10;;;;;;4919394;29;20035;-70
2022/11/04 06:44:27;;;;;;;12.00;8.38;;;12.10;98.10;;;;;;4920857;29;20051;-71
2022/11/04 06:46:53;;;;;;;13.15;8.00;;;12.10;98.10;;;;;;4919584;29;20036;-71
2022/11/04 06:49:20;;;;;;;16.48;9.68;;;12.10;98.10;;;;;;4924746;29;20035;-71
2022/11/04 06:51:47;;;;;;;15.48;9.32;;;12.20;98.00;;;;;;4926005;29;20031;-70
2022/11/04 06:54:14;;;;;;;14.63;8.77;;;12.20;97.90;;;;;;4925488;29;20031;-71
2022/11/04 06:56:40;;;;;;;14.02;8.55;;;12.20;97.90;;;;;;4937304;29;20074;-71
2022/11/04 06:59:07;;;;;;;15.52;8.40;;;12.10;98.30;;;;;;4920292;29;20028;-70
2022/11/04 07:01:35;;;;;;;12.85;8.60;;;12.10;98.20;;;;;;4924973;29;20027;-71
2022/11/04 07:04:04;;;;;;;16.50;9.13;;;12.10;98.30;;;;;;4925904;29;20036;-70
2022/11/04 07:06:30;;;;;;;15.68;9.25;;;12.10;98.30;;;;;;4923198;29;20038;-71
2022/11/04 07:09:00;;;;;;;12.70;8.32;;;12.10;98.30;;;;;;4919902;29;20027;-71
2022/11/04 07:11:28;;;;;;;13.55;8.55;;;12.10;98.30;;;;;;4921446;29;20046;-70
2022/11/04 07:13:54;;;;;;;15.57;9.07;;;12.20;98.20;;;;;;4926450;29;20032;-70
2022/11/04 07:16:20;;;;;;;13.25;8.75;;;12.20;98.20;;;;;;4926355;29;20047;-71
2022/11/04 07:18:46;;;;;;;16.88;9.40;;;12.20;98.10;;;;;;4926175;29;20028;-70
2022/11/04 07:21:12;;;;;;;17.45;9.65;;;12.30;98.20;;;;;;4924380;29;20036;-70
2022/11/04 07:23:38;;;;;;;14.68;9.90;;;12.30;98.20;;;;;;4924850;29;20035;-70
2022/11/04 07:26:06;;;;;;;17.67;9.20;;;12.30;98.30;;;;;;4919961;29;20035;-70
2022/11/04 07:28:33;;;;;;;19.42;10.32;;;12.20;98.30;;;;;;4923341;29;20126;-70
2022/11/04 07:31:01;;;;;;;16.63;9.43;;;12.20;98.60;;;;;;4925352;29;20050;-70
2022/11/04 07:33:27;;;;;;;14.25;9.05;;;12.20;98.60;;;;;;4920539;29;20039;-70
2022/11/04 07:35:53;;;;;;;15.32;9.55;;;12.20;98.60;;;;;;4924053;29;20042;-70
2022/11/04 07:38:20;;;;;;;17.27;9.25;;;12.20;98.60;;;;;;4920822;29;20527;-71
2022/11/04 07:40:46;;;;;;;15.73;9.20;;;12.20;98.70;;;;;;4920838;29;20024;-71
2022/11/04 07:43:12;;;;;;;17.70;9.52;;;12.20;98.80;;;;;;4924424;29;20719;-70
2022/11/04 07:45:38;;;;;;;15.48;8.32;;;12.20;98.90;;;;;;4924826;29;20040;-70
2022/11/04 07:48:04;;;;;;;13.55;9.10;;;12.20;99.00;;;;;;4924326;29;20036;-70
2022/11/04 07:50:30;;;;;;;14.50;8.30;;;12.20;99.10;;;;;;4923997;29;20664;-70
2022/11/04 07:52:55;;;;;;;12.85;8.95;;;12.30;99.10;;;;;;4922742;29;20036;-70
2022/11/04 07:55:21;;;;;;;16.55;9.63;;;12.30;99.10;;;;;;4923924;29;20074;-70
2022/11/04 07:57:47;;;;;;;16.33;10.70;;;12.40;99.10;;;;;;4925096;29;20083;-70
2022/11/04 08:00:15;;;;;;;16.50;10.50;;;12.40;99.10;;;;;;4924585;29;20031;-70
2022/11/04 08:02:45;;;;;;;16.58;10.23;;;12.40;99.10;;;;;;4925288;29;20528;-70
2022/11/04 08:05:12;;;;;;;13.95;8.77;;;12.50;99.00;;;;;;4925668;29;20035;-70
2022/11/04 08:07:39;;;;;;;16.25;8.77;;;12.50;98.90;;;;;;4923502;29;20039;-70
2022/11/04 08:10:05;;;;;;;13.65;8.27;;;12.50;98.90;;;;;;4922416;29;20032;-70
2022/11/04 08:12:31;;;;;;;13.57;8.82;;;12.60;98.80;;;;;;4923168;29;20400;-70
2022/11/04 08:14:58;;;;;;;14.07;8.93;;;12.60;98.90;;;;;;4922497;29;20036;-70
2022/11/04 08:17:25;;;;;;;11.45;8.02;;;12.60;98.90;;;;;;4923119;29;20035;-70
2022/11/04 08:19:50;;;;;;;13.85;8.40;;;12.70;98.80;;;;;;4924049;29;20651;-71
2022/11/04 08:22:16;;;;;;;13.85;7.90;;;12.70;98.80;;;;;;4926446;29;20039;-71
2022/11/04 08:24:42;;;;;;;10.93;7.53;;;12.80;98.90;;;;;;4924367;29;20063;-71
2022/11/04 08:27:08;;;;;;;10.45;7.07;;;12.80;98.90;;;;;;4922071;29;20063;-70
2022/11/04 08:29:35;;;;;;;11.30;8.15;;;12.80;98.90;;;;;;4920000;29;20029;-70
2022/11/04 08:32:01;;;;;;;11.57;6.65;;;12.80;98.90;;;;;;4921116;29;20067;-70
2022/11/04 08:34:27;;;;;;;10.75;6.63;;;12.80;98.90;;;;;;4925055;29;20140;-70
2022/11/04 08:36:56;;;;;;;10.20;6.63;;;12.90;99.00;;;;;;4925649;29;20682;-70
2022/11/04 08:39:23;;;;;;;11.32;7.38;;;12.90;99.10;;;;;;4925063;29;20055;-69
2022/11/04 08:41:49;;;;;;;13.27;7.85;;;12.90;99.00;;;;;;4924493;29;20469;-70
2022/11/04 08:44:15;;;;;;;12.55;7.25;;;13.00;99.00;;;;;;4923914;29;20865;-70
2022/11/04 08:46:43;;;;;;;13.82;7.72;;;13.00;98.90;;;;;;4921492;29;20138;-71
2022/11/04 08:49:10;;;;;;;10.13;6.68;;;13.00;98.80;;;;;;4920814;29;20118;-70
2022/11/04 08:51:38;;;;;;;9.02;6.43;;;13.10;98.80;;;;;;4921517;29;20032;-70
2022/11/04 08:54:05;;;;;;;9.55;6.20;;;13.10;98.60;;;;;;4920117;29;20043;-70
2022/11/04 08:56:33;;;;;;;10.18;6.78;;;13.10;98.70;;;;;;4923770;29;20040;-70
2022/11/04 08:59:03;;;;;;;11.52;7.03;;;13.10;98.60;;;;;;4923418;29;20023;-70
2022/11/04 09:01:32;;;;;;;10.10;6.28;;;13.10;98.50;;;;;;4919591;29;20134;-70
2022/11/04 09:03:57;;;;;;;10.88;6.32;;;13.10;98.50;;;;;;4916668;29;20872;-71
2022/11/04 09:06:30;;;;;;;10.40;7.00;;;13.10;98.60;;;;;;4920809;29;20027;-71
2022/11/04 09:09:01;;;;;;;9.95;6.00;;;13.10;98.40;;;;;;4918341;29;20047;-71
2022/11/04 09:11:27;;;;;;;11.50;7.35;;;13.10;98.40;;;;;;4922472;29;20031;-71
2022/11/04 09:13:53;;;;;;;8.25;5.72;;;13.20;98.30;;;;;;4921363;29;20035;-70
2022/11/04 09:16:19;;;;;;;7.43;5.80;;;13.10;98.20;;;;;;4923548;29;20494;-71
2022/11/04 09:18:44;;;;;;;8.80;5.47;;;13.10;98.20;;;;;;4920150;29;20070;-69
2022/11/04 09:21:11;;;;;;;9.27;5.90;;;13.20;98.20;;;;;;4919022;29;20123;-71
2022/11/04 09:23:37;;;;;;;7.38;5.28;;;13.10;98.20;;;;;;4924569;29;20038;-71
2022/11/04 09:26:08;;;;;;;8.07;5.32;;;13.10;98.20;;;;;;4920865;29;20359;-71
2022/11/04 09:28:34;;;;;;;7.68;5.68;;;13.10;98.10;;;;;;4919416;29;20028;-71
2022/11/04 09:31:04;;;;;;;9.00;5.22;;;13.20;98.00;;;;;;4922396;29;20701;-75
2022/11/04 09:33:31;;;;;;;6.63;4.95;;;13.20;98.10;;;;;;4923759;29;20095;-72
2022/11/04 09:35:57;;;;;;;11.20;5.65;;;13.10;98.10;;;;;;4919071;29;20034;-72
2022/11/04 09:38:26;;;;;;;12.50;6.43;;;13.20;98.10;;;;;;4923756;29;20028;-74
2022/11/04 09:40:52;;;;;;;10.48;5.50;;;13.20;98.20;;;;;;4920751;29;20099;-73
2022/11/04 09:43:32;;;;;;;7.65;5.25;;;13.20;98.20;;;;;;4920425;29;20035;-72
2022/11/04 09:46:00;;;;;;;8.38;5.30;;;13.20;98.20;;;;;;4917845;29;20043;-72
2022/11/04 09:48:48;;;;;;;7.40;5.68;;;13.20;98.10;;;;;;4924190;29;20035;-72
2022/11/04 09:51:17;;;;;;;8.25;5.78;;;13.20;98.10;;;;;;4924395;29;20109;-71
2022/11/04 09:53:50;;;;;;;9.05;5.43;;;13.30;98.10;;;;;;4923613;29;20142;-71
2022/11/04 09:56:20;;;;;;;6.75;5.00;;;13.30;98.00;;;;;;4922199;29;20028;-71
2022/11/04 09:58:48;;;;;;;9.52;5.05;;;13.20;97.80;;;;;;4906568;29;20056;-71
2022/11/04 10:01:17;;;;;;;13.38;5.38;;;13.30;97.80;;;;;;4917785;29;20032;-71
2022/11/04 10:04:07;;;;;;;8.52;5.35;;;13.30;97.90;;;;;;4921561;29;20172;-70
2022/11/04 10:06:41;;;;;;;7.65;5.10;;;13.30;97.80;;;;;;4918866;29;20532;-71
2022/11/04 10:09:35;;;;;;;7.63;5.22;;;13.30;97.60;;;;;;4920182;29;20564;-71
2022/11/04 10:12:14;;;;;;;6.68;4.85;;;13.40;97.60;;;;;;4920866;29;20050;-71
2022/11/04 10:15:08;;;;;;;6.10;4.65;;;13.40;97.60;;;;;;4923321;29;20054;-71
2022/11/04 10:18:04;;;;;;;6.07;4.38;;;13.40;97.50;;;;;;4921387;29;20028;-71
2022/11/04 10:21:05;;;;;;;9.67;5.20;;;13.40;97.50;;;;;;4920273;29;20028;-70
2022/11/04 10:23:39;;;;;;;6.35;4.30;;;13.50;97.30;;;;;;4917970;29;20395;-71
2022/11/04 10:26:18;;;;;;;7.38;4.80;;;13.50;97.40;;;;;;4921298;29;20688;-72
2022/11/04 10:28:55;;;;;;;4.95;4.10;;;13.50;97.30;;;;;;4921576;29;20090;-72
2022/11/04 10:31:23;;;;;;;6.32;4.70;;;13.50;97.40;;;;;;4922059;29;20119;-71
2022/11/04 10:33:59;;;;;;;6.70;4.30;;;13.50;97.40;;;;;;4922583;29;20107;-71
2022/11/04 10:36:25;;;;;;;6.28;4.60;;;13.60;97.40;;;;;;4917945;29;20131;-71
2022/11/04 10:38:54;;;;;;;7.00;4.68;;;13.60;97.40;;;;;;4914648;29;20040;-72
2022/11/04 10:41:38;;;;;;;8.10;5.30;;;13.60;97.30;;;;;;4916750;29;20031;-71
2022/11/04 10:44:15;;;;;;;6.70;4.00;;;13.70;96.80;;;;;;4919688;29;20122;-72
2022/11/04 10:47:03;;;;;;;6.38;4.47;;;13.60;96.70;;;;;;4920284;29;20043;-71
2022/11/04 10:49:37;;;;;;;5.78;4.47;;;13.60;96.70;;;;;;4918379;29;20650;-71
2022/11/04 10:52:05;;;;;;;6.75;4.13;;;13.50;96.60;;;;;;4914052;29;20043;-71
2022/11/04 10:54:39;;;;;;;5.05;4.13;;;13.50;96.50;;;;;;4922077;29;20028;-72
2022/11/04 10:57:04;;;;;;;11.82;4.28;;;13.50;96.60;;;;;;4918571;29;20300;-72
2022/11/04 10:59:47;;;;;;;5.78;3.70;;;13.50;96.60;;;;;;4919928;29;20035;-73
2022/11/04 11:02:13;;;;;;;6.03;4.13;;;13.50;96.60;;;;;;4918995;29;20687;-72
2022/11/04 11:04:40;;;;;;;5.60;4.40;;;13.40;96.60;;;;;;4919320;29;20024;-73
2022/11/04 11:07:08;;;;;;;5.25;3.60;;;13.40;96.70;;;;;;4919854;29;20114;-73
2022/11/04 11:09:41;;;;;;;6.18;4.65;;;13.40;96.80;;;;;;4922509;29;20122;-73
2022/11/04 11:12:13;;;;;;;5.88;4.72;;;13.40;96.90;;;;;;4914698;29;20046;-73
2022/11/04 11:14:40;;;;;;;7.18;3.65;;;13.40;96.90;;;;;;4922759;29;20059;-76
2022/11/04 11:17:18;;;;;;;4.60;4.00;;;13.40;96.90;;;;;;4908546;29;20689;-81
2022/11/04 11:19:51;;;;;;;6.15;4.47;;;13.30;96.90;;;;;;4916997;29;20472;-72
2022/11/04 11:22:36;;;;;;;5.40;4.07;;;13.30;97.00;;;;;;4917096;29;20139;-71
2022/11/04 11:25:29;;;;;;;5.15;3.60;;;13.20;97.30;;;;;;4917523;29;20500;-72
2022/11/04 11:27:55;;;;;;;5.32;3.60;;;13.20;97.00;;;;;;4917871;29;20072;-72
2022/11/04 11:30:59;;;;;;;5.00;3.63;;;13.20;97.10;;;;;;4919754;29;20119;-72
2022/11/04 11:33:35;;;;;;;5.75;4.07;;;13.20;97.10;;;;;;4913160;29;20548;-72
2022/11/04 11:36:11;;;;;;;4.93;3.75;;;13.20;97.20;;;;;;4923045;29;20707;-72
2022/11/04 11:38:50;;;;;;;5.57;4.13;;;13.20;97.20;;;;;;4919651;29;20900;-72
2022/11/04 11:41:20;;;;;;;5.30;4.25;;;13.20;97.20;;;;;;4917663;29;20046;-72
2022/11/04 11:43:51;;;;;;;5.15;3.60;;;13.20;97.20;;;;;;4925298;29;20083;-72
2022/11/04 11:46:29;;;;;;;5.97;4.28;;;13.20;97.20;;;;;;4921361;29;20028;-71
2022/11/04 11:49:00;;;;;;;5.00;3.80;;;13.20;97.20;;;;;;4922667;29;20073;-72
2022/11/04 11:51:37;;;;;;;5.20;4.18;;;13.20;97.20;;;;;;4919249;29;20036;-72
2022/11/04 11:54:32;;;;;;;5.00;4.25;;;13.20;97.20;;;;;;4922029;29;20803;-72
2022/11/04 11:57:02;;;;;;;5.63;4.03;;;13.20;97.20;;;;;;4920117;29;20068;-70
2022/11/04 11:59:47;;;;;;;6.40;3.90;;;13.20;97.30;;;;;;4923436;29;20078;-69
2022/11/04 12:02:24;;;;;;;5.22;4.00;;;13.10;97.40;;;;;;4922366;29;20095;-70
2022/11/04 12:04:50;;;;;;;3.97;3.50;;;13.10;97.40;;;;;;4922037;29;20040;-69
2022/11/04 12:07:28;;;;;;;5.35;4.10;;;13.20;97.50;;;;;;4919406;29;20044;-70
2022/11/04 12:10:00;;;;;;;5.00;3.83;;;13.20;97.60;;;;;;4922796;29;20107;-70
2022/11/04 12:12:57;;;;;;;5.38;4.28;;;13.20;97.60;;;;;;4926784;29;20028;-69
2022/11/04 12:16:00;;;;;;;5.00;3.53;;;13.20;97.60;;;;;;4924288;29;20036;-69
2022/11/04 12:18:51;;;;;;;4.82;3.78;;;13.20;97.50;;;;;;4885555;29;20800;-69
2022/11/04 12:21:32;;;;;;;5.65;4.07;;;13.20;97.50;;;;;;4922888;29;20027;-70
2022/11/04 12:24:00;;;;;;;5.13;4.07;;;13.20;97.50;;;;;;4921271;29;20156;-70
2022/11/04 12:26:28;;;;;;;5.63;4.05;;;13.20;97.50;;;;;;4923530;29;20032;-70
2022/11/04 12:29:15;;;;;;;5.28;3.65;;;13.20;97.60;;;;;;4921527;29;20632;-69
2022/11/04 12:31:56;;;;;;;5.05;3.97;;;13.10;97.60;;;;;;4920208;29;20686;-69
2022/11/04 12:34:45;;;;;;;5.20;4.00;;;13.20;97.90;;;;;;4921652;29;20034;-70
2022/11/04 12:37:39;;;;;;;8.25;4.60;;;13.20;97.60;;;;;;4922808;29;20035;-69
2022/11/04 12:40:49;;;;;;;4.65;4.10;;;13.10;97.60;;;;;;4916996;29;20874;-72
2022/11/04 12:43:38;;;;;;;7.65;4.57;;;13.10;97.60;;;;;;4911525;29;20893;-69
2022/11/04 12:46:22;;;;;;;6.57;4.45;;;13.00;97.50;;;;;;4920842;29;20423;-70
2022/11/04 12:49:03;;;;;;;8.60;4.25;;;13.00;97.50;;;;;;4924574;29;20821;-69
2022/11/04 12:51:52;;;;;;;7.63;4.60;;;13.00;97.50;;;;;;4923058;29;20031;-69
2022/11/04 12:54:33;;;;;;;9.25;4.57;;;13.00;97.50;;;;;;4918696;29;20036;-70
2022/11/04 12:57:18;;;;;;;5.50;4.07;;;13.00;97.60;;;;;;4921614;29;20070;-69
2022/11/04 13:00:01;;;;;;;5.78;3.75;;;13.00;97.60;;;;;;4922108;29;20032;-70
2022/11/04 13:02:59;;;;;;;6.15;4.25;;;13.00;97.50;;;;;;4923988;29;20019;-69
2022/11/04 13:05:25;;;;;;;6.00;4.43;;;12.90;97.50;;;;;;4918519;29;20841;-68
2022/11/04 13:08:13;;;;;;;7.35;5.00;;;12.90;97.50;;;;;;4924553;29;20039;-70
2022/11/04 13:10:49;;;;;;;9.02;5.80;;;12.90;97.50;;;;;;4922166;29;20492;-69
2022/11/04 13:13:19;;;;;;;9.68;5.75;;;12.90;97.40;;;;;;4920474;29;20099;-70
2022/11/04 13:15:50;;;;;;;9.35;5.57;;;12.90;97.40;;;;;;4922445;29;20038;-70
2022/11/04 13:18:19;;;;;;;10.90;5.50;;;12.90;97.40;;;;;;4920797;29;20024;-72
2022/11/04 13:20:49;;;;;;;10.18;5.80;;;12.90;97.50;;;;;;4921114;29;20039;-72
2022/11/04 13:23:30;;;;;;;11.98;5.68;;;12.90;97.50;;;;;;4922326;29;20067;-72
2022/11/04 13:25:57;;;;;;;12.82;6.07;;;12.80;97.50;;;;;;4917103;29;20027;-72
2022/11/04 13:28:24;;;;;;;13.93;6.90;;;12.80;97.50;;;;;;4919891;29;20429;-70
2022/11/04 13:31:11;;;;;;;12.88;6.75;;;12.80;97.80;;;;;;4918221;29;20044;-70
2022/11/04 13:33:48;;;;;;;9.40;6.03;;;12.80;97.50;;;;;;4921446;29;20039;-69
2022/11/04 13:36:29;;;;;;;12.73;5.05;;;12.80;97.50;;;;;;4919676;29;20036;-70
2022/11/04 13:39:21;;;;;;;7.97;5.57;;;12.80;97.60;;;;;;4920745;29;20034;-70